sensor_id;sensor_type;location;lat;lon;timestamp;pressure;altitude;pressure_sealevel;temperature;humidity
76108;BME280;64834;52.516;10.528;2023-03-15T00:01:03;100249.31;;;0.78;79.10
76108;BME280;64834;52.516;10.528;2023-03-15T00:03:31;100247.38;;;0.75;79.45
76108;BME280;64834;52.516;10.528;2023-03-15T00:05:56;100255.50;;;0.80;78.99
76108;BME280;64834;52.516;10.528;2023-03-15T00:08:21;100252.78;;;0.78;79.22
76108;BME280;64834;52.516;10.528;2023-03-15T00:10:47;100260.63;;;0.70;79.41
76108;BME280;64834;52.516;10.528;2023-03-15T00:13:14;100262.03;;;0.66;79.59
76108;BME280;64834;52.516;10.528;2023-03-15T00:15:45;100260.34;;;0.67;79.81
76108;BME280;64834;52.516;10.528;2023-03-15T00:18:10;100272.69;;;0.61;80.17
76108;BME280;64834;52.516;10.528;2023-03-15T00:20:36;100267.41;;;0.59;80.08
76108;BME280;64834;52.516;10.528;2023-03-15T00:23:01;100269.88;;;0.58;80.14
76108;BME280;64834;52.516;10.528;2023-03-15T00:25:27;100277.06;;;0.62;79.89
76108;BME280;64834;52.516;10.528;2023-03-15T00:27:52;100281.19;;;0.60;80.36
76108;BME280;64834;52.516;10.528;2023-03-15T00:30:17;100269.63;;;0.65;79.96
76108;BME280;64834;52.516;10.528;2023-03-15T00:32:43;100275.94;;;0.68;80.39
76108;BME280;64834;52.516;10.528;2023-03-15T00:35:10;100280.53;;;0.62;80.10
76108;BME280;64834;52.516;10.528;2023-03-15T00:37:37;100282.63;;;0.66;80.34
76108;BME280;64834;52.516;10.528;2023-03-15T00:40:02;100281.44;;;0.63;80.47
76108;BME280;64834;52.516;10.528;2023-03-15T00:42:27;100278.06;;;0.53;81.02
76108;BME280;64834;52.516;10.528;2023-03-15T00:44:53;100285.16;;;0.56;81.17
76108;BME280;64834;52.516;10.528;2023-03-15T00:47:20;100292.13;;;0.57;81.07
76108;BME280;64834;52.516;10.528;2023-03-15T00:49:46;100301.91;;;0.51;81.25
76108;BME280;64834;52.516;10.528;2023-03-15T00:52:11;100301.25;;;0.53;81.29
76108;BME280;64834;52.516;10.528;2023-03-15T00:54:36;100307.59;;;0.57;81.06
76108;BME280;64834;52.516;10.528;2023-03-15T00:57:02;100312.38;;;0.44;81.42
76108;BME280;64834;52.516;10.528;2023-03-15T00:59:29;100309.31;;;0.48;81.36
76108;BME280;64834;52.516;10.528;2023-03-15T01:02:00;100311.66;;;0.45;81.33
76108;BME280;64834;52.516;10.528;2023-03-15T01:04:25;100307.66;;;0.48;81.33
76108;BME280;64834;52.516;10.528;2023-03-15T01:06:51;100317.03;;;0.48;81.08
76108;BME280;64834;52.516;10.528;2023-03-15T01:09:16;100318.81;;;0.39;81.39
76108;BME280;64834;52.516;10.528;2023-03-15T01:11:41;100321.94;;;0.45;81.18
76108;BME280;64834;52.516;10.528;2023-03-15T01:14:08;100321.16;;;0.46;81.16
76108;BME280;64834;52.516;10.528;2023-03-15T01:16:34;100329.63;;;0.64;80.19
76108;BME280;64834;52.516;10.528;2023-03-15T01:18:59;100324.97;;;0.60;80.40
76108;BME280;64834;52.516;10.528;2023-03-15T01:21:25;100331.13;;;0.62;80.09
76108;BME280;64834;52.516;10.528;2023-03-15T01:23:52;100326.53;;;0.68;79.71
76108;BME280;64834;52.516;10.528;2023-03-15T01:26:17;100324.84;;;0.68;80.00
76108;BME280;64834;52.516;10.528;2023-03-15T01:28:43;100333.47;;;0.69;79.52
76108;BME280;64834;52.516;10.528;2023-03-15T01:31:20;100337.59;;;0.67;79.96
76108;BME280;64834;52.516;10.528;2023-03-15T01:33:46;100341.59;;;0.63;79.90
76108;BME280;64834;52.516;10.528;2023-03-15T01:36:11;100344.78;;;0.61;80.57
76108;BME280;64834;52.516;10.528;2023-03-15T01:38:37;100341.06;;;0.57;80.65
76108;BME280;64834;52.516;10.528;2023-03-15T01:41:03;100339.41;;;0.68;79.98
76108;BME280;64834;52.516;10.528;2023-03-15T01:43:30;100341.44;;;0.62;80.08
76108;BME280;64834;52.516;10.528;2023-03-15T01:46:06;100345.19;;;0.65;79.75
76108;BME280;64834;52.516;10.528;2023-03-15T01:48:42;100334.47;;;0.61;80.22
76108;BME280;64834;52.516;10.528;2023-03-15T01:54:25;100349.25;;;0.53;80.06
76108;BME280;64834;52.516;10.528;2023-03-15T01:56:59;100345.91;;;0.54;80.00
76108;BME280;64834;52.516;10.528;2023-03-15T01:59:30;100345.78;;;0.52;80.09
76108;BME280;64834;52.516;10.528;2023-03-15T02:01:58;100342.50;;;0.64;79.71
76108;BME280;64834;52.516;10.528;2023-03-15T02:04:36;100349.56;;;0.66;79.72
76108;BME280;64834;52.516;10.528;2023-03-15T02:07:04;100346.63;;;0.72;79.54
76108;BME280;64834;52.516;10.528;2023-03-15T02:10:04;100353.59;;;0.73;79.86
76108;BME280;64834;52.516;10.528;2023-03-15T02:12:31;100352.88;;;0.84;78.74
76108;BME280;64834;52.516;10.528;2023-03-15T02:14:59;100350.72;;;0.89;79.40
76108;BME280;64834;52.516;10.528;2023-03-15T02:17:36;100347.91;;;0.96;78.95
76108;BME280;64834;52.516;10.528;2023-03-15T02:28:02;100364.81;;;1.13;78.36
76108;BME280;64834;52.516;10.528;2023-03-15T02:30:27;100364.19;;;1.15;78.34
76108;BME280;64834;52.516;10.528;2023-03-15T02:32:53;100368.97;;;1.21;78.11
76108;BME280;64834;52.516;10.528;2023-03-15T02:35:23;100365.44;;;1.10;78.41
76108;BME280;64834;52.516;10.528;2023-03-15T02:37:49;100360.84;;;1.16;78.38
76108;BME280;64834;52.516;10.528;2023-03-15T02:40:20;100364.69;;;1.11;78.60
76108;BME280;64834;52.516;10.528;2023-03-15T02:42:47;100362.63;;;1.07;78.69
76108;BME280;64834;52.516;10.528;2023-03-15T02:45:16;100361.84;;;1.08;78.76
76108;BME280;64834;52.516;10.528;2023-03-15T02:47:43;100369.81;;;1.11;78.47
76108;BME280;64834;52.516;10.528;2023-03-15T02:50:09;100365.88;;;1.15;77.85
76108;BME280;64834;52.516;10.528;2023-03-15T02:52:35;100373.19;;;1.10;78.49
76108;BME280;64834;52.516;10.528;2023-03-15T02:55:00;100364.13;;;1.05;78.60
76108;BME280;64834;52.516;10.528;2023-03-15T02:57:26;100373.97;;;1.09;78.33
76108;BME280;64834;52.516;10.528;2023-03-15T02:59:52;100373.53;;;1.04;78.33
76108;BME280;64834;52.516;10.528;2023-03-15T03:02:19;100367.00;;;1.08;77.99
76108;BME280;64834;52.516;10.528;2023-03-15T03:04:45;100383.84;;;1.04;78.13
76108;BME280;64834;52.516;10.528;2023-03-15T03:07:10;100383.44;;;1.00;78.52
76108;BME280;64834;52.516;10.528;2023-03-15T03:09:35;100382.16;;;0.95;78.51
76108;BME280;64834;52.516;10.528;2023-03-15T03:12:01;100390.78;;;0.95;78.64
76108;BME280;64834;52.516;10.528;2023-03-15T03:14:26;100396.69;;;0.94;78.85
76108;BME280;64834;52.516;10.528;2023-03-15T03:16:51;100393.75;;;1.00;78.43
76108;BME280;64834;52.516;10.528;2023-03-15T03:19:17;100398.53;;;0.95;78.98
76108;BME280;64834;52.516;10.528;2023-03-15T03:21:42;100405.13;;;1.02;78.87
76108;BME280;64834;52.516;10.528;2023-03-15T03:24:09;100414.22;;;0.98;78.67
76108;BME280;64834;52.516;10.528;2023-03-15T03:26:34;100419.88;;;0.94;78.90
76108;BME280;64834;52.516;10.528;2023-03-15T03:29:02;100413.28;;;0.88;79.32
76108;BME280;64834;52.516;10.528;2023-03-15T03:31:30;100419.97;;;0.86;79.56
76108;BME280;64834;52.516;10.528;2023-03-15T03:33:58;100423.22;;;0.93;78.98
76108;BME280;64834;52.516;10.528;2023-03-15T03:36:23;100422.28;;;0.83;80.01
76108;BME280;64834;52.516;10.528;2023-03-15T03:38:49;100423.53;;;0.77;79.69
76108;BME280;64834;52.516;10.528;2023-03-15T03:41:15;100430.50;;;0.78;80.02
76108;BME280;64834;52.516;10.528;2023-03-15T03:43:41;100438.88;;;0.76;79.96
76108;BME280;64834;52.516;10.528;2023-03-15T03:46:06;100429.72;;;0.79;79.91
76108;BME280;64834;52.516;10.528;2023-03-15T03:48:32;100435.56;;;0.68;79.95
76108;BME280;64834;52.516;10.528;2023-03-15T03:50:57;100440.78;;;0.78;79.47
76108;BME280;64834;52.516;10.528;2023-03-15T03:53:23;100449.22;;;0.67;80.12
76108;BME280;64834;52.516;10.528;2023-03-15T03:55:48;100451.66;;;0.66;80.17
76108;BME280;64834;52.516;10.528;2023-03-15T03:58:14;100452.31;;;0.63;80.10
76108;BME280;64834;52.516;10.528;2023-03-15T04:00:39;100457.16;;;0.60;80.62
76108;BME280;64834;52.516;10.528;2023-03-15T04:03:06;100460.38;;;0.58;80.62
76108;BME280;64834;52.516;10.528;2023-03-15T04:05:31;100464.75;;;0.59;80.15
76108;BME280;64834;52.516;10.528;2023-03-15T04:07:57;100467.31;;;0.59;80.44
76108;BME280;64834;52.516;10.528;2023-03-15T04:10:22;100476.22;;;0.62;80.55
76108;BME280;64834;52.516;10.528;2023-03-15T04:12:51;100477.13;;;0.63;80.44
76108;BME280;64834;52.516;10.528;2023-03-15T04:15:16;100492.00;;;0.57;80.90
76108;BME280;64834;52.516;10.528;2023-03-15T04:17:42;100492.44;;;0.61;80.95
76108;BME280;64834;52.516;10.528;2023-03-15T04:20:08;100491.53;;;0.61;81.26
76108;BME280;64834;52.516;10.528;2023-03-15T04:22:37;100501.00;;;0.70;80.76
76108;BME280;64834;52.516;10.528;2023-03-15T04:25:03;100491.75;;;0.72;80.99
76108;BME280;64834;52.516;10.528;2023-03-15T04:27:29;100514.28;;;0.75;81.05
76108;BME280;64834;52.516;10.528;2023-03-15T04:29:54;100505.44;;;0.81;80.88
76108;BME280;64834;52.516;10.528;2023-03-15T04:32:19;100515.69;;;0.90;80.58
76108;BME280;64834;52.516;10.528;2023-03-15T04:34:45;100513.81;;;0.98;80.70
76108;BME280;64834;52.516;10.528;2023-03-15T04:37:16;100517.16;;;0.97;80.96
76108;BME280;64834;52.516;10.528;2023-03-15T04:39:41;100522.09;;;1.04;80.88
76108;BME280;64834;52.516;10.528;2023-03-15T04:42:06;100521.84;;;1.11;80.90
76108;BME280;64834;52.516;10.528;2023-03-15T04:44:32;100524.19;;;1.08;81.33
76108;BME280;64834;52.516;10.528;2023-03-15T04:46:57;100527.56;;;1.17;81.61
76108;BME280;64834;52.516;10.528;2023-03-15T04:49:22;100528.88;;;1.22;81.54
76108;BME280;64834;52.516;10.528;2023-03-15T04:51:48;100528.53;;;1.28;81.46
76108;BME280;64834;52.516;10.528;2023-03-15T04:54:13;100526.56;;;1.25;82.18
76108;BME280;64834;52.516;10.528;2023-03-15T04:56:38;100529.00;;;1.24;82.96
76108;BME280;64834;52.516;10.528;2023-03-15T04:59:06;100534.28;;;1.25;83.13
76108;BME280;64834;52.516;10.528;2023-03-15T05:01:31;100536.88;;;1.25;83.36
76108;BME280;64834;52.516;10.528;2023-03-15T05:03:57;100549.69;;;1.34;83.36
76108;BME280;64834;52.516;10.528;2023-03-15T05:06:23;100541.66;;;1.31;83.96
76108;BME280;64834;52.516;10.528;2023-03-15T05:08:48;100554.56;;;1.31;83.43
76108;BME280;64834;52.516;10.528;2023-03-15T05:11:13;100558.81;;;1.30;84.33
76108;BME280;64834;52.516;10.528;2023-03-15T05:13:39;100561.38;;;1.30;84.74
76108;BME280;64834;52.516;10.528;2023-03-15T05:16:04;100570.66;;;1.28;85.14
76108;BME280;64834;52.516;10.528;2023-03-15T05:18:30;100572.81;;;1.24;86.03
76108;BME280;64834;52.516;10.528;2023-03-15T05:20:55;100571.03;;;1.23;86.13
76108;BME280;64834;52.516;10.528;2023-03-15T05:23:22;100581.63;;;1.26;86.20
76108;BME280;64834;52.516;10.528;2023-03-15T05:25:54;100589.97;;;1.23;86.59
76108;BME280;64834;52.516;10.528;2023-03-15T05:28:21;100598.47;;;1.22;86.90
76108;BME280;64834;52.516;10.528;2023-03-15T05:30:46;100604.41;;;1.21;86.99
76108;BME280;64834;52.516;10.528;2023-03-15T05:33:12;100616.63;;;1.24;86.83
76108;BME280;64834;52.516;10.528;2023-03-15T05:35:38;100610.59;;;1.23;86.73
76108;BME280;64834;52.516;10.528;2023-03-15T05:38:03;100611.78;;;1.27;86.61
76108;BME280;64834;52.516;10.528;2023-03-15T05:40:29;100624.50;;;1.25;87.08
76108;BME280;64834;52.516;10.528;2023-03-15T05:42:55;100624.38;;;1.24;87.27
76108;BME280;64834;52.516;10.528;2023-03-15T05:45:21;100626.69;;;1.21;87.74
76108;BME280;64834;52.516;10.528;2023-03-15T05:47:46;100629.53;;;1.24;87.74
76108;BME280;64834;52.516;10.528;2023-03-15T05:50:12;100631.06;;;1.22;87.78
76108;BME280;64834;52.516;10.528;2023-03-15T05:52:37;100638.03;;;1.23;87.85
76108;BME280;64834;52.516;10.528;2023-03-15T05:55:03;100649.72;;;1.19;87.83
76108;BME280;64834;52.516;10.528;2023-03-15T05:57:28;100649.72;;;1.19;87.88
76108;BME280;64834;52.516;10.528;2023-03-15T05:59:53;100647.31;;;1.21;87.66
76108;BME280;64834;52.516;10.528;2023-03-15T06:02:19;100661.69;;;1.19;88.27
76108;BME280;64834;52.516;10.528;2023-03-15T06:04:45;100671.88;;;1.17;88.10
76108;BME280;64834;52.516;10.528;2023-03-15T06:07:10;100673.22;;;1.22;88.01
76108;BME280;64834;52.516;10.528;2023-03-15T06:09:36;100684.16;;;1.20;88.42
76108;BME280;64834;52.516;10.528;2023-03-15T06:12:01;100675.66;;;1.21;88.34
76108;BME280;64834;52.516;10.528;2023-03-15T06:14:26;100687.91;;;1.23;88.50
76108;BME280;64834;52.516;10.528;2023-03-15T06:16:52;100690.63;;;1.25;88.79
76108;BME280;64834;52.516;10.528;2023-03-15T06:19:18;100702.13;;;1.28;88.46
76108;BME280;64834;52.516;10.528;2023-03-15T06:21:43;100710.91;;;1.30;88.57
76108;BME280;64834;52.516;10.528;2023-03-15T06:24:09;100712.09;;;1.34;88.61
76108;BME280;64834;52.516;10.528;2023-03-15T06:26:35;100717.13;;;1.32;88.49
76108;BME280;64834;52.516;10.528;2023-03-15T06:29:00;100709.00;;;1.38;87.99
76108;BME280;64834;52.516;10.528;2023-03-15T06:31:26;100723.44;;;1.36;87.94
76108;BME280;64834;52.516;10.528;2023-03-15T06:33:51;100728.25;;;1.42;87.57
76108;BME280;64834;52.516;10.528;2023-03-15T06:36:16;100720.81;;;1.45;87.79
76108;BME280;64834;52.516;10.528;2023-03-15T06:38:42;100722.75;;;1.47;87.56
76108;BME280;64834;52.516;10.528;2023-03-15T06:41:07;100724.66;;;1.58;87.36
76108;BME280;64834;52.516;10.528;2023-03-15T06:43:33;100724.09;;;1.52;87.46
76108;BME280;64834;52.516;10.528;2023-03-15T06:45:59;100735.91;;;1.50;87.44
76108;BME280;64834;52.516;10.528;2023-03-15T06:48:25;100722.69;;;1.37;87.87
76108;BME280;64834;52.516;10.528;2023-03-15T06:50:50;100735.09;;;1.41;88.04
76108;BME280;64834;52.516;10.528;2023-03-15T06:53:15;100742.91;;;1.51;87.62
76108;BME280;64834;52.516;10.528;2023-03-15T06:55:42;100748.81;;;1.69;87.29
76108;BME280;64834;52.516;10.528;2023-03-15T06:58:07;100746.59;;;2.01;86.02
76108;BME280;64834;52.516;10.528;2023-03-15T07:00:32;100753.03;;;2.25;85.45
76108;BME280;64834;52.516;10.528;2023-03-15T07:02:57;100743.94;;;2.10;84.96
76108;BME280;64834;52.516;10.528;2023-03-15T07:05:23;100743.75;;;2.27;85.03
76108;BME280;64834;52.516;10.528;2023-03-15T07:07:48;100752.59;;;2.39;84.54
76108;BME280;64834;52.516;10.528;2023-03-15T07:10:13;100761.91;;;2.48;84.65
76108;BME280;64834;52.516;10.528;2023-03-15T07:12:39;100760.38;;;2.50;83.54
76108;BME280;64834;52.516;10.528;2023-03-15T07:15:04;100767.03;;;2.66;84.05
76108;BME280;64834;52.516;10.528;2023-03-15T07:17:30;100771.91;;;2.63;84.07
76108;BME280;64834;52.516;10.528;2023-03-15T07:19:55;100774.53;;;2.44;85.36
76108;BME280;64834;52.516;10.528;2023-03-15T07:22:20;100780.38;;;2.23;85.25
76108;BME280;64834;52.516;10.528;2023-03-15T07:24:47;100775.44;;;2.16;85.48
76108;BME280;64834;52.516;10.528;2023-03-15T07:27:13;100786.00;;;2.09;85.58
76108;BME280;64834;52.516;10.528;2023-03-15T07:29:38;100800.94;;;2.03;85.80
76108;BME280;64834;52.516;10.528;2023-03-15T07:32:04;100795.69;;;2.11;85.75
76108;BME280;64834;52.516;10.528;2023-03-15T07:34:29;100809.19;;;2.47;85.39
76108;BME280;64834;52.516;10.528;2023-03-15T07:36:54;100806.25;;;2.91;84.52
76108;BME280;64834;52.516;10.528;2023-03-15T07:39:20;100813.34;;;2.94;83.56
76108;BME280;64834;52.516;10.528;2023-03-15T07:41:45;100809.44;;;2.89;83.78
76108;BME280;64834;52.516;10.528;2023-03-15T07:44:10;100810.03;;;2.66;83.49
76108;BME280;64834;52.516;10.528;2023-03-15T07:46:36;100818.78;;;2.58;84.04
76108;BME280;64834;52.516;10.528;2023-03-15T07:49:01;100818.91;;;2.59;85.08
76108;BME280;64834;52.516;10.528;2023-03-15T07:51:26;100816.59;;;2.62;84.44
76108;BME280;64834;52.516;10.528;2023-03-15T07:53:52;100824.31;;;2.52;84.11
76108;BME280;64834;52.516;10.528;2023-03-15T07:56:18;100823.00;;;2.47;83.42
76108;BME280;64834;52.516;10.528;2023-03-15T07:58:43;100823.22;;;2.40;84.72
76108;BME280;64834;52.516;10.528;2023-03-15T08:01:08;100836.25;;;2.41;84.62
76108;BME280;64834;52.516;10.528;2023-03-15T08:03:34;100833.34;;;2.86;84.82
76108;BME280;64834;52.516;10.528;2023-03-15T08:06:00;100833.34;;;3.15;83.42
76108;BME280;64834;52.516;10.528;2023-03-15T08:08:25;100842.31;;;2.90;82.62
76108;BME280;64834;52.516;10.528;2023-03-15T08:10:51;100838.81;;;3.00;81.70
76108;BME280;64834;52.516;10.528;2023-03-15T08:13:16;100843.63;;;3.05;80.64
76108;BME280;64834;52.516;10.528;2023-03-15T08:15:44;100854.53;;;3.21;81.41
76108;BME280;64834;52.516;10.528;2023-03-15T08:18:10;100855.41;;;3.12;80.59
76108;BME280;64834;52.516;10.528;2023-03-15T08:20:36;100861.56;;;2.93;80.99
76108;BME280;64834;52.516;10.528;2023-03-15T08:23:01;100874.47;;;2.83;81.27
76108;BME280;64834;52.516;10.528;2023-03-15T08:25:27;100872.06;;;3.05;81.87
76108;BME280;64834;52.516;10.528;2023-03-15T08:27:52;100879.94;;;2.96;81.92
76108;BME280;64834;52.516;10.528;2023-03-15T08:30:19;100883.00;;;2.92;80.81
76108;BME280;64834;52.516;10.528;2023-03-15T08:32:46;100891.13;;;3.16;81.50
76108;BME280;64834;52.516;10.528;2023-03-15T08:35:13;100893.69;;;3.16;80.26
76108;BME280;64834;52.516;10.528;2023-03-15T08:37:40;100893.66;;;3.06;80.59
76108;BME280;64834;52.516;10.528;2023-03-15T08:40:07;100905.44;;;3.12;79.20
76108;BME280;64834;52.516;10.528;2023-03-15T08:42:35;100910.78;;;2.95;79.45
76108;BME280;64834;52.516;10.528;2023-03-15T08:45:05;100904.28;;;3.09;78.26
76108;BME280;64834;52.516;10.528;2023-03-15T08:47:31;100904.09;;;3.36;76.63
76108;BME280;64834;52.516;10.528;2023-03-15T08:49:59;100909.56;;;3.49;77.07
76108;BME280;64834;52.516;10.528;2023-03-15T08:52:24;100905.69;;;3.55;76.58
76108;BME280;64834;52.516;10.528;2023-03-15T08:54:50;100903.75;;;3.62;77.92
76108;BME280;64834;52.516;10.528;2023-03-15T08:57:15;100913.09;;;3.60;75.91
76108;BME280;64834;52.516;10.528;2023-03-15T08:59:41;100922.16;;;3.75;76.90
76108;BME280;64834;52.516;10.528;2023-03-15T09:02:08;100921.78;;;3.91;76.25
76108;BME280;64834;52.516;10.528;2023-03-15T09:04:34;100926.69;;;3.88;74.92
76108;BME280;64834;52.516;10.528;2023-03-15T09:06:59;100927.88;;;3.92;76.04
76108;BME280;64834;52.516;10.528;2023-03-15T09:09:24;100933.69;;;3.99;75.61
76108;BME280;64834;52.516;10.528;2023-03-15T09:11:50;100939.25;;;3.94;76.59
76108;BME280;64834;52.516;10.528;2023-03-15T09:14:15;100952.31;;;3.75;76.29
76108;BME280;64834;52.516;10.528;2023-03-15T09:16:40;100946.53;;;4.18;75.29
76108;BME280;64834;52.516;10.528;2023-03-15T09:19:06;100943.41;;;4.12;76.05
76108;BME280;64834;52.516;10.528;2023-03-15T09:21:31;100950.66;;;4.06;77.56
76108;BME280;64834;52.516;10.528;2023-03-15T09:23:56;100952.88;;;4.22;77.14
76108;BME280;64834;52.516;10.528;2023-03-15T09:26:22;100958.44;;;4.26;76.00
76108;BME280;64834;52.516;10.528;2023-03-15T09:28:47;100958.19;;;4.03;73.19
76108;BME280;64834;52.516;10.528;2023-03-15T09:31:12;100953.66;;;4.31;74.27
76108;BME280;64834;52.516;10.528;2023-03-15T09:33:37;100961.16;;;4.38;73.96
76108;BME280;64834;52.516;10.528;2023-03-15T09:36:03;100960.78;;;4.54;73.56
76108;BME280;64834;52.516;10.528;2023-03-15T09:38:28;100964.25;;;4.54;74.68
76108;BME280;64834;52.516;10.528;2023-03-15T09:40:58;100964.50;;;4.57;71.49
76108;BME280;64834;52.516;10.528;2023-03-15T09:43:51;100962.47;;;4.53;72.85
76108;BME280;64834;52.516;10.528;2023-03-15T09:46:25;100975.41;;;4.53;71.80
76108;BME280;64834;52.516;10.528;2023-03-15T09:49:03;100972.28;;;4.78;72.96
76108;BME280;64834;52.516;10.528;2023-03-15T09:51:35;100971.44;;;4.99;71.24
76108;BME280;64834;52.516;10.528;2023-03-15T09:54:07;100977.69;;;4.91;70.37
76108;BME280;64834;52.516;10.528;2023-03-15T09:56:58;100964.97;;;4.94;72.00
76108;BME280;64834;52.516;10.528;2023-03-15T09:59:31;100968.75;;;5.20;71.03
76108;BME280;64834;52.516;10.528;2023-03-15T10:02:01;100979.63;;;5.26;67.56
76108;BME280;64834;52.516;10.528;2023-03-15T10:04:31;100971.94;;;5.05;70.81
76108;BME280;64834;52.516;10.528;2023-03-15T10:07:05;100978.69;;;5.03;69.35
76108;BME280;64834;52.516;10.528;2023-03-15T10:09:36;100984.28;;;4.98;68.70
76108;BME280;64834;52.516;10.528;2023-03-15T10:12:10;100977.31;;;4.86;70.31
76108;BME280;64834;52.516;10.528;2023-03-15T10:14:51;100979.94;;;4.56;71.91
76108;BME280;64834;52.516;10.528;2023-03-15T10:20:10;100981.63;;;4.55;71.33
76108;BME280;64834;52.516;10.528;2023-03-15T10:22:59;100983.03;;;4.62;71.27
76108;BME280;64834;52.516;10.528;2023-03-15T10:25:31;100978.09;;;4.85;72.17
76108;BME280;64834;52.516;10.528;2023-03-15T10:30:35;100974.59;;;4.85;69.73
76108;BME280;64834;52.516;10.528;2023-03-15T10:33:28;100984.97;;;4.75;69.03
76108;BME280;64834;52.516;10.528;2023-03-15T10:35:56;100982.94;;;4.30;71.27
76108;BME280;64834;52.516;10.528;2023-03-15T10:38:23;100996.75;;;4.00;74.35
76108;BME280;64834;52.516;10.528;2023-03-15T10:40:51;100994.66;;;3.86;73.95
76108;BME280;64834;52.516;10.528;2023-03-15T10:45:46;100991.81;;;3.93;75.81
76108;BME280;64834;52.516;10.528;2023-03-15T10:48:11;100980.44;;;4.01;74.09
76108;BME280;64834;52.516;10.528;2023-03-15T10:50:38;100978.91;;;4.03;71.35
76108;BME280;64834;52.516;10.528;2023-03-15T10:53:16;100978.38;;;3.97;70.94
76108;BME280;64834;52.516;10.528;2023-03-15T10:55:44;100982.91;;;3.99;72.77
76108;BME280;64834;52.516;10.528;2023-03-15T10:58:39;100980.56;;;4.33;73.61
76108;BME280;64834;52.516;10.528;2023-03-15T11:01:07;100975.63;;;4.77;71.90
76108;BME280;64834;52.516;10.528;2023-03-15T11:03:36;100982.38;;;4.85;69.75
76108;BME280;64834;52.516;10.528;2023-03-15T11:06:02;100985.34;;;4.79;62.89
76108;BME280;64834;52.516;10.528;2023-03-15T11:08:41;100975.25;;;5.14;61.39
76108;BME280;64834;52.516;10.528;2023-03-15T11:11:08;100977.44;;;5.20;59.58
76108;BME280;64834;52.516;10.528;2023-03-15T11:13:35;100982.72;;;5.00;59.47
76108;BME280;64834;52.516;10.528;2023-03-15T11:16:18;100981.81;;;4.89;61.28
76108;BME280;64834;52.516;10.528;2023-03-15T11:18:56;100989.63;;;4.79;63.81
76108;BME280;64834;52.516;10.528;2023-03-15T11:21:27;100980.16;;;4.79;61.55
76108;BME280;64834;52.516;10.528;2023-03-15T11:23:55;100984.56;;;4.70;56.14
76108;BME280;64834;52.516;10.528;2023-03-15T11:26:23;100982.47;;;4.86;54.60
76108;BME280;64834;52.516;10.528;2023-03-15T11:28:51;100993.72;;;5.39;55.31
76108;BME280;64834;52.516;10.528;2023-03-15T11:31:23;100994.38;;;5.47;53.81
76108;BME280;64834;52.516;10.528;2023-03-15T11:33:57;100994.66;;;5.62;53.60
76108;BME280;64834;52.516;10.528;2023-03-15T11:36:27;100993.53;;;5.80;55.31
76108;BME280;64834;52.516;10.528;2023-03-15T11:38:54;101002.88;;;5.78;53.57
76108;BME280;64834;52.516;10.528;2023-03-15T11:41:40;101001.56;;;5.61;53.76
76108;BME280;64834;52.516;10.528;2023-03-15T11:44:22;101004.75;;;5.69;53.90
76108;BME280;64834;52.516;10.528;2023-03-15T11:46:56;101003.66;;;5.77;54.01
76108;BME280;64834;52.516;10.528;2023-03-15T11:49:42;101002.34;;;5.82;51.49
76108;BME280;64834;52.516;10.528;2023-03-15T11:52:10;100990.16;;;6.03;54.25
76108;BME280;64834;52.516;10.528;2023-03-15T11:54:36;101004.19;;;6.05;53.82
76108;BME280;64834;52.516;10.528;2023-03-15T11:57:07;101002.28;;;6.36;56.70
76108;BME280;64834;52.516;10.528;2023-03-15T11:59:51;101001.81;;;6.08;55.38
76108;BME280;64834;52.516;10.528;2023-03-15T12:04:46;100991.44;;;6.08;53.31
76108;BME280;64834;52.516;10.528;2023-03-15T12:17:37;101006.91;;;6.07;52.57
76108;BME280;64834;52.516;10.528;2023-03-15T12:22:37;101007.75;;;6.51;48.21
76108;BME280;64834;52.516;10.528;2023-03-15T12:25:14;100999.31;;;6.32;47.34
76108;BME280;64834;52.516;10.528;2023-03-15T12:27:46;101008.34;;;6.03;44.96
76108;BME280;64834;52.516;10.528;2023-03-15T12:30:20;101009.41;;;6.39;50.76
76108;BME280;64834;52.516;10.528;2023-03-15T12:32:50;101011.84;;;6.71;48.28
76108;BME280;64834;52.516;10.528;2023-03-15T12:35:18;101013.59;;;6.37;47.96
76108;BME280;64834;52.516;10.528;2023-03-15T12:37:49;101012.63;;;6.03;47.14
76108;BME280;64834;52.516;10.528;2023-03-15T12:55:47;101049.13;;;6.26;47.94
76108;BME280;64834;52.516;10.528;2023-03-15T12:58:15;101069.75;;;5.91;52.07
76108;BME280;64834;52.516;10.528;2023-03-15T13:00:42;101080.78;;;5.78;58.03
76108;BME280;64834;52.516;10.528;2023-03-15T13:03:12;101098.34;;;5.08;58.86
76108;BME280;64834;52.516;10.528;2023-03-15T13:08:23;101096.06;;;4.80;62.09
76108;BME280;64834;52.516;10.528;2023-03-15T13:13:42;101155.41;;;4.18;68.08
76108;BME280;64834;52.516;10.528;2023-03-15T13:16:35;101172.69;;;3.98;69.54
76108;BME280;64834;52.516;10.528;2023-03-15T13:19:18;101162.31;;;3.69;69.73
76108;BME280;64834;52.516;10.528;2023-03-15T13:22:02;101164.97;;;3.61;69.96
76108;BME280;64834;52.516;10.528;2023-03-15T13:24:40;101175.69;;;3.55;69.56
76108;BME280;64834;52.516;10.528;2023-03-15T13:35:46;101194.06;;;2.93;76.77
76108;BME280;64834;52.516;10.528;2023-03-15T13:40:55;101168.28;;;2.84;83.29
76108;BME280;64834;52.516;10.528;2023-03-15T13:43:33;101160.84;;;3.44;83.27
76108;BME280;64834;52.516;10.528;2023-03-15T13:45:59;101166.31;;;3.28;81.94
76108;BME280;64834;52.516;10.528;2023-03-15T13:48:26;101164.13;;;3.14;82.18
76108;BME280;64834;52.516;10.528;2023-03-15T13:50:51;101164.88;;;3.40;82.16
76108;BME280;64834;52.516;10.528;2023-03-15T13:53:23;101154.91;;;3.45;78.75
76108;BME280;64834;52.516;10.528;2023-03-15T13:55:51;101157.66;;;3.46;79.12
76108;BME280;64834;52.516;10.528;2023-03-15T13:58:17;101153.53;;;3.48;78.35
76108;BME280;64834;52.516;10.528;2023-03-15T14:00:44;101144.50;;;3.83;77.21